Time;durP1;ratioP1;P1;durP2;ratioP2;P2;SDS_P1;SDS_P2;PMS_P1;PMS_P2;Temp;Humidity;BMP_temperature;BMP_pressure;BME280_temperature;BME280_humidity;BME280_pressure;Samples;Min_cycle;Max_cycle;Signal;HPM_P1;HPM_P2
2022/04/07 00:00:52;;;;;;;9.00;5.70;;;14.50;61.10;;;;;;5050013;28;20458;-69
2022/04/07 00:03:19;;;;;;;10.37;5.60;;;14.60;61.00;;;;;;5050076;28;20456;-68
2022/04/07 00:05:46;;;;;;;8.23;4.10;;;14.60;61.20;;;;;;5049854;28;20482;-67
2022/04/07 00:08:15;;;;;;;10.50;5.33;;;14.70;60.60;;;;;;5049963;28;20946;-68
2022/04/07 00:10:42;;;;;;;8.93;4.80;;;14.60;60.90;;;;;;5049983;28;20469;-68
2022/04/07 00:13:09;;;;;;;8.53;5.10;;;14.50;61.80;;;;;;5049877;28;20450;-69
2022/04/07 00:15:36;;;;;;;8.83;4.13;;;14.40;62.40;;;;;;5049890;28;20470;-68
2022/04/07 00:18:04;;;;;;;8.40;4.40;;;14.60;62.30;;;;;;5049805;28;20454;-68
2022/04/07 00:20:31;;;;;;;8.37;4.50;;;14.40;62.30;;;;;;5049911;28;20458;-68
2022/04/07 00:22:58;;;;;;;11.00;5.63;;;14.40;63.60;;;;;;5049932;28;20495;-68
2022/04/07 00:25:27;;;;;;;9.53;4.60;;;14.50;63.30;;;;;;5049399;28;20502;-68
2022/04/07 00:27:54;;;;;;;8.93;5.10;;;14.50;63.30;;;;;;5049723;28;20450;-68
2022/04/07 00:30:22;;;;;;;7.80;4.40;;;14.50;64.10;;;;;;5049605;28;21000;-68
2022/04/07 00:32:50;;;;;;;8.93;4.47;;;14.60;63.80;;;;;;5049857;28;20454;-68
2022/04/07 00:35:18;;;;;;;8.07;5.20;;;14.40;63.70;;;;;;5049670;28;20877;-68
2022/04/07 00:37:45;;;;;;;7.43;4.80;;;14.50;64.00;;;;;;5049508;28;20461;-68
2022/04/07 00:40:13;;;;;;;5.60;3.93;;;14.50;64.10;;;;;;5049591;28;20442;-69
2022/04/07 00:42:48;;;;;;;8.37;4.63;;;14.50;63.90;;;;;;5049200;28;20489;-67
2022/04/07 00:45:16;;;;;;;7.93;5.00;;;14.50;63.60;;;;;;5049499;28;20485;-69
2022/04/07 00:47:43;;;;;;;7.40;4.37;;;14.30;63.50;;;;;;5049275;28;20660;-68
2022/04/07 00:50:11;;;;;;;7.20;4.07;;;14.20;64.10;;;;;;5049273;28;20493;-68
2022/04/07 00:52:42;;;;;;;6.90;4.17;;;14.10;64.50;;;;;;5049203;28;20513;-68
2022/04/07 00:55:11;;;;;;;5.30;3.90;;;14.10;64.70;;;;;;5049428;28;20569;-68
2022/04/07 00:57:40;;;;;;;6.83;4.27;;;14.00;65.20;;;;;;5053207;28;20531;-69
2022/04/07 01:00:11;;;;;;;6.80;4.37;;;14.00;65.50;;;;;;5053506;28;21024;-68
2022/04/07 01:02:38;;;;;;;7.33;4.87;;;13.90;66.50;;;;;;5053152;28;20454;-69
2022/04/07 01:05:06;;;;;;;6.80;4.40;;;14.10;66.80;;;;;;5053020;28;20470;-68
2022/04/07 01:07:37;;;;;;;5.80;3.63;;;14.10;66.80;;;;;;5053303;28;20803;-68
2022/04/07 01:10:05;;;;;;;6.67;3.70;;;14.10;67.00;;;;;;5053133;28;20617;-68
2022/04/07 01:12:32;;;;;;;6.90;4.30;;;14.20;66.80;;;;;;5053341;28;20461;-69
2022/04/07 01:15:02;;;;;;;7.13;4.00;;;14.20;66.90;;;;;;5053086;28;20473;-69
2022/04/07 01:17:30;;;;;;;6.80;4.73;;;14.20;67.60;;;;;;5053272;28;20454;-68
2022/04/07 01:19:58;;;;;;;6.03;3.70;;;14.20;68.80;;;;;;5053197;28;20536;-68
2022/04/07 01:22:25;;;;;;;6.20;4.00;;;14.10;68.50;;;;;;5052991;28;20461;-68
2022/04/07 01:24:54;;;;;;;7.33;4.10;;;13.90;69.00;;;;;;5052625;28;20446;-68
2022/04/07 01:27:21;;;;;;;6.73;4.60;;;13.90;69.50;;;;;;5053077;28;20551;-69
2022/04/07 01:29:48;;;;;;;6.53;3.90;;;14.20;69.30;;;;;;5053038;28;20482;-68
2022/04/07 01:32:20;;;;;;;7.30;4.00;;;14.40;69.00;;;;;;5052451;28;20914;-68
2022/04/07 01:34:48;;;;;;;6.30;4.23;;;14.50;68.90;;;;;;5052652;28;20450;-69
2022/04/07 01:37:15;;;;;;;6.73;4.13;;;14.60;69.10;;;;;;5052987;28;20474;-69
2022/04/07 01:39:44;;;;;;;7.60;4.30;;;14.60;69.00;;;;;;5052906;28;20438;-69
2022/04/07 01:42:15;;;;;;;6.70;4.27;;;14.60;68.80;;;;;;5052792;28;20458;-68
2022/04/07 01:44:47;;;;;;;8.33;5.10;;;14.70;68.90;;;;;;5052610;28;20454;-68
2022/04/07 01:47:17;;;;;;;7.90;4.90;;;14.60;68.40;;;;;;5052312;28;20477;-68
2022/04/07 01:49:46;;;;;;;9.00;4.07;;;14.60;68.20;;;;;;5051224;28;20502;-68
2022/04/07 01:52:14;;;;;;;6.27;4.60;;;14.40;68.70;;;;;;5051404;28;20516;-68
2022/04/07 01:54:43;;;;;;;9.17;4.87;;;14.20;69.30;;;;;;5051045;28;20568;-67
2022/04/07 01:57:12;;;;;;;7.67;4.23;;;13.90;69.90;;;;;;5051490;28;20531;-68
2022/04/07 01:59:40;;;;;;;6.50;4.37;;;13.80;70.60;;;;;;5051045;28;20490;-67
2022/04/07 02:02:07;;;;;;;7.50;4.67;;;13.80;71.40;;;;;;5051289;28;20449;-68
2022/04/07 02:04:34;;;;;;;7.90;4.17;;;13.80;71.90;;;;;;5051186;28;20942;-69
2022/04/07 02:07:01;;;;;;;9.33;4.80;;;13.50;73.90;;;;;;5050616;28;20473;-69
2022/04/07 02:09:33;;;;;;;7.47;4.33;;;13.20;76.10;;;;;;5050584;28;20497;-69
2022/04/07 02:12:02;;;;;;;7.10;4.00;;;13.40;76.60;;;;;;5051010;28;20454;-69
2022/04/07 02:14:30;;;;;;;8.17;4.20;;;13.70;75.20;;;;;;5050901;28;20812;-68
2022/04/07 02:16:57;;;;;;;9.80;4.33;;;13.80;74.30;;;;;;5050905;28;20468;-69
2022/04/07 02:19:24;;;;;;;6.70;4.37;;;13.90;74.00;;;;;;5050813;28;20445;-70
2022/04/07 02:21:52;;;;;;;6.33;3.60;;;13.80;74.20;;;;;;5050750;28;20465;-69
2022/04/07 02:24:19;;;;;;;5.57;3.60;;;13.60;75.20;;;;;;5050792;28;20481;-68
2022/04/07 02:26:46;;;;;;;6.80;4.43;;;13.70;75.60;;;;;;5049295;28;20474;-69
2022/04/07 02:29:13;;;;;;;7.60;4.30;;;13.60;77.00;;;;;;5050816;28;20571;-70
2022/04/07 02:31:42;;;;;;;6.23;4.07;;;13.60;76.60;;;;;;5050801;28;20446;-68
2022/04/07 02:34:09;;;;;;;9.07;5.07;;;13.70;76.10;;;;;;5050691;28;20453;-69
2022/04/07 02:36:36;;;;;;;12.60;7.30;;;13.70;75.90;;;;;;5050534;28;20481;-69
2022/04/07 02:39:03;;;;;;;14.03;7.30;;;13.70;75.50;;;;;;5050640;28;20914;-69
2022/04/07 02:41:31;;;;;;;7.30;5.13;;;13.60;75.90;;;;;;5050380;28;20457;-68
2022/04/07 02:43:58;;;;;;;6.60;4.43;;;13.60;76.30;;;;;;5050542;28;20528;-68
2022/04/07 02:46:25;;;;;;;9.20;5.50;;;13.50;77.70;;;;;;5050485;28;20478;-69
2022/04/07 02:48:54;;;;;;;8.50;4.50;;;13.30;79.00;;;;;;4997519;28;1520401;-68
2022/04/07 02:51:21;;;;;;;6.03;4.10;;;13.30;79.80;;;;;;5051221;28;20210;-69
2022/04/07 02:53:48;;;;;;;7.70;4.50;;;13.40;79.70;;;;;;5051339;28;20462;-68
2022/04/07 02:56:15;;;;;;;7.80;4.97;;;13.50;79.80;;;;;;5051388;28;20476;-68
2022/04/07 02:58:42;;;;;;;8.07;4.10;;;13.60;80.00;;;;;;5051457;28;21090;-68
2022/04/07 03:01:14;;;;;;;5.70;3.83;;;13.70;79.10;;;;;;5051421;28;20453;-68
2022/04/07 03:03:41;;;;;;;7.17;4.67;;;13.60;78.90;;;;;;5051188;28;20468;-68
2022/04/07 03:06:09;;;;;;;6.23;3.90;;;13.60;78.70;;;;;;5050881;28;20450;-68
2022/04/07 03:08:36;;;;;;;6.07;3.90;;;13.60;79.10;;;;;;5050894;28;20463;-69
2022/04/07 03:11:05;;;;;;;7.37;4.33;;;13.50;79.40;;;;;;5050750;28;20490;-68
2022/04/07 03:13:33;;;;;;;7.53;4.37;;;13.40;79.50;;;;;;5051123;28;20465;-67
2022/04/07 03:16:00;;;;;;;6.40;3.53;;;13.20;80.00;;;;;;5050812;28;20461;-69
2022/04/07 03:18:27;;;;;;;10.27;4.00;;;13.20;81.00;;;;;;5050228;28;20450;-69
2022/04/07 03:20:54;;;;;;;7.23;4.17;;;13.00;82.20;;;;;;5050978;28;20453;-68
2022/04/07 03:23:22;;;;;;;7.23;4.83;;;13.00;82.80;;;;;;5050913;28;20453;-68
2022/04/07 03:25:49;;;;;;;6.77;4.23;;;13.10;84.00;;;;;;5050797;28;20460;-68
2022/04/07 03:28:16;;;;;;;6.73;4.07;;;13.10;84.30;;;;;;5050576;28;20839;-68
2022/04/07 03:30:43;;;;;;;7.37;4.10;;;13.10;85.00;;;;;;5050495;28;20562;-68
2022/04/07 03:33:11;;;;;;;8.13;4.53;;;13.20;84.00;;;;;;5050620;28;20472;-68
2022/04/07 03:35:38;;;;;;;6.20;3.93;;;13.10;84.40;;;;;;5050529;28;20977;-68
2022/04/07 03:38:06;;;;;;;6.00;3.70;;;13.10;85.40;;;;;;5050004;28;20478;-68
2022/04/07 03:40:35;;;;;;;7.20;3.77;;;13.20;85.70;;;;;;5050078;28;20454;-68
2022/04/07 03:43:03;;;;;;;8.20;4.53;;;13.20;86.00;;;;;;5050241;28;20596;-68
2022/04/07 03:45:30;;;;;;;7.20;4.40;;;13.20;86.20;;;;;;5050244;28;20449;-69
2022/04/07 03:47:57;;;;;;;6.27;3.97;;;13.30;86.60;;;;;;5049849;28;20465;-68
2022/04/07 03:50:25;;;;;;;8.13;4.27;;;13.40;86.60;;;;;;5050128;28;20905;-68
2022/04/07 03:52:52;;;;;;;7.37;4.57;;;13.50;85.80;;;;;;5050303;28;20510;-69
2022/04/07 03:55:20;;;;;;;6.70;4.17;;;13.50;85.80;;;;;;5050076;28;20470;-68
2022/04/07 03:57:48;;;;;;;6.70;4.33;;;13.30;86.30;;;;;;5048920;28;20450;-68
2022/04/07 04:00:16;;;;;;;7.60;4.50;;;13.00;88.20;;;;;;5050033;28;20465;-68
2022/04/07 04:02:43;;;;;;;7.73;4.63;;;12.90;89.00;;;;;;5049966;28;20453;-68
2022/04/07 04:05:11;;;;;;;6.03;3.83;;;12.90;89.80;;;;;;5050021;28;20524;-68
2022/04/07 04:07:38;;;;;;;6.70;4.17;;;13.00;90.10;;;;;;5049947;28;20461;-69
2022/04/07 04:10:06;;;;;;;6.57;4.50;;;13.00;90.30;;;;;;5049862;28;20521;-68
2022/04/07 04:12:33;;;;;;;7.90;5.43;;;13.10;90.30;;;;;;5049724;28;20711;-69
2022/04/07 04:15:02;;;;;;;8.23;4.40;;;13.10;90.40;;;;;;5049904;28;20465;-69
2022/04/07 04:17:30;;;;;;;8.27;4.83;;;13.10;90.40;;;;;;5049908;28;20446;-69
2022/04/07 04:19:57;;;;;;;8.50;4.80;;;13.00;90.40;;;;;;5049850;28;20453;-68
2022/04/07 04:22:25;;;;;;;8.27;5.20;;;12.90;90.90;;;;;;5049957;28;20458;-68
2022/04/07 04:24:52;;;;;;;6.47;4.30;;;12.90;91.60;;;;;;5049920;28;20531;-68
2022/04/07 04:27:19;;;;;;;10.73;5.20;;;12.90;92.00;;;;;;5049678;28;20556;-68
2022/04/07 04:29:46;;;;;;;8.00;4.40;;;12.90;91.90;;;;;;5049547;28;20486;-68
2022/04/07 04:32:14;;;;;;;5.20;4.07;;;13.00;91.60;;;;;;5049817;28;20462;-69
2022/04/07 04:34:41;;;;;;;13.93;5.30;;;13.10;91.70;;;;;;5049540;28;21004;-68
2022/04/07 04:37:08;;;;;;;10.70;4.90;;;13.10;91.50;;;;;;5049561;28;20450;-68
2022/04/07 04:39:35;;;;;;;6.40;4.40;;;13.00;92.10;;;;;;5049232;28;20450;-67
2022/04/07 04:42:04;;;;;;;6.77;4.47;;;13.10;92.00;;;;;;5049508;28;20861;-68
2022/04/07 04:44:31;;;;;;;8.83;4.93;;;13.10;91.60;;;;;;5049378;28;20569;-68
2022/04/07 04:46:58;;;;;;;6.57;4.67;;;13.20;91.80;;;;;;5049787;28;20453;-67
2022/04/07 04:49:27;;;;;;;7.60;4.57;;;13.20;92.10;;;;;;5048834;28;20493;-69
2022/04/07 04:51:54;;;;;;;10.23;4.80;;;13.20;92.20;;;;;;5049568;28;20527;-68
2022/04/07 04:54:21;;;;;;;7.77;4.80;;;13.20;91.70;;;;;;5049371;28;20477;-68
2022/04/07 04:56:48;;;;;;;7.03;4.60;;;13.30;91.90;;;;;;5049538;28;20449;-68
2022/04/07 04:59:16;;;;;;;6.40;4.37;;;13.40;91.60;;;;;;5049519;28;20458;-69
2022/04/07 05:01:43;;;;;;;7.97;4.70;;;13.40;91.40;;;;;;5049372;28;20822;-67
2022/04/07 05:04:10;;;;;;;6.83;4.40;;;13.50;91.10;;;;;;5049380;28;20997;-68
2022/04/07 05:06:38;;;;;;;10.33;5.33;;;13.60;91.20;;;;;;5049305;28;20462;-68
2022/04/07 05:09:05;;;;;;;9.20;4.90;;;13.60;91.10;;;;;;5049239;28;20454;-66
2022/04/07 05:11:33;;;;;;;7.93;4.83;;;13.60;91.40;;;;;;5049208;28;20512;-66
2022/04/07 05:14:00;;;;;;;15.70;5.63;;;13.70;91.40;;;;;;5049220;28;20474;-67
2022/04/07 05:16:27;;;;;;;10.90;5.60;;;13.70;91.40;;;;;;5048790;28;20462;-67
2022/04/07 05:18:54;;;;;;;7.43;5.10;;;13.70;91.30;;;;;;5049172;28;20487;-67
2022/04/07 05:21:21;;;;;;;8.23;4.63;;;13.70;90.90;;;;;;5049377;28;20450;-68
2022/04/07 05:23:50;;;;;;;8.40;5.53;;;13.80;91.00;;;;;;5048916;28;21004;-67
2022/04/07 05:26:17;;;;;;;8.47;4.97;;;13.80;91.00;;;;;;5048957;28;20473;-71
2022/04/07 05:28:45;;;;;;;6.50;4.70;;;13.80;91.00;;;;;;5048877;28;20556;-68
2022/04/07 05:31:12;;;;;;;7.67;5.40;;;13.90;90.60;;;;;;5048970;28;20523;-71
2022/04/07 05:33:39;;;;;;;9.90;4.57;;;13.90;90.50;;;;;;5046974;28;20511;-68
2022/04/07 05:36:07;;;;;;;6.23;4.10;;;13.90;90.20;;;;;;5048479;28;20460;-68
2022/04/07 05:38:34;;;;;;;7.70;4.83;;;13.90;89.60;;;;;;5048809;28;20842;-77
2022/04/07 05:41:02;;;;;;;11.47;5.17;;;13.90;89.70;;;;;;5049061;28;20446;-78
2022/04/07 05:43:29;;;;;;;9.30;4.63;;;13.70;89.60;;;;;;5051534;28;20810;-74
2022/04/07 05:45:57;;;;;;;8.03;4.90;;;13.50;90.20;;;;;;5052425;28;20457;-76
2022/04/07 05:48:24;;;;;;;12.90;6.40;;;13.40;90.70;;;;;;5052156;28;20493;-74
2022/04/07 05:50:51;;;;;;;9.90;5.97;;;13.30;91.10;;;;;;5052314;28;20485;-76
2022/04/07 05:53:18;;;;;;;12.50;7.80;;;13.30;91.00;;;;;;5052425;28;20454;-74
2022/04/07 05:55:45;;;;;;;11.07;6.07;;;13.30;90.90;;;;;;5052438;28;20990;-74
2022/04/07 05:58:15;;;;;;;8.80;6.07;;;13.10;90.90;;;;;;5052690;28;20481;-80
2022/04/07 06:00:42;;;;;;;12.20;6.40;;;13.00;91.00;;;;;;5052387;28;20459;-68
2022/04/07 06:03:09;;;;;;;9.77;6.47;;;13.00;91.60;;;;;;5052074;28;20457;-74
2022/04/07 06:05:36;;;;;;;8.00;6.17;;;13.00;91.70;;;;;;5051785;28;20449;-76
2022/04/07 06:08:04;;;;;;;8.83;5.70;;;13.20;91.70;;;;;;5051537;28;20473;-77
2022/04/07 06:10:31;;;;;;;8.30;5.30;;;13.20;91.40;;;;;;5051774;28;20990;-77
2022/04/07 06:12:59;;;;;;;10.80;5.77;;;13.20;91.20;;;;;;5051874;28;20935;-79
2022/04/07 06:15:28;;;;;;;8.90;6.03;;;13.40;91.10;;;;;;5052070;28;20454;-81
2022/04/07 06:17:55;;;;;;;6.90;5.07;;;13.50;91.00;;;;;;5052175;28;20501;-78
2022/04/07 06:20:22;;;;;;;7.57;4.90;;;13.60;91.00;;;;;;5051847;28;20947;-73
2022/04/07 06:22:49;;;;;;;8.77;5.90;;;13.70;90.70;;;;;;5051492;28;20576;-72
2022/04/07 06:25:19;;;;;;;9.67;5.73;;;13.60;91.20;;;;;;5051824;28;20454;-75
2022/04/07 06:27:47;;;;;;;7.40;5.77;;;13.70;90.80;;;;;;5052373;28;20470;-72
2022/04/07 06:30:16;;;;;;;9.77;5.83;;;13.80;90.50;;;;;;5051561;28;20516;-78
2022/04/07 06:32:46;;;;;;;8.70;5.17;;;13.80;91.00;;;;;;5051861;28;20458;-78
2022/04/07 06:35:15;;;;;;;10.30;6.10;;;13.90;90.80;;;;;;5051957;28;20446;-67
2022/04/07 06:37:49;;;;;;;10.90;7.23;;;14.00;91.00;;;;;;5051681;28;20473;-76
2022/04/07 06:40:19;;;;;;;8.10;5.80;;;14.10;90.60;;;;;;5051601;28;20926;-73
2022/04/07 06:42:46;;;;;;;10.20;6.07;;;14.20;90.30;;;;;;5051722;28;20549;-71
2022/04/07 06:45:13;;;;;;;15.17;6.40;;;14.20;90.40;;;;;;5051320;28;20453;-72
2022/04/07 06:47:41;;;;;;;15.90;5.70;;;14.30;90.00;;;;;;5051269;28;20470;-70
2022/04/07 06:50:11;;;;;;;12.83;5.87;;;14.20;88.10;;;;;;5051214;28;20950;-66
2022/04/07 06:52:39;;;;;;;10.90;6.10;;;14.10;88.80;;;;;;5051268;28;20458;-73
2022/04/07 06:55:07;;;;;;;6.80;4.90;;;14.10;88.20;;;;;;5049846;28;21008;-75
2022/04/07 06:57:48;;;;;;;7.93;5.97;;;13.90;87.50;;;;;;5050970;28;20528;-71
2022/04/07 07:00:17;;;;;;;8.97;5.77;;;13.90;88.30;;;;;;5051429;28;20454;-73
2022/04/07 07:02:45;;;;;;;10.23;6.20;;;14.00;89.40;;;;;;5050808;28;20450;-73
2022/04/07 07:05:14;;;;;;;11.73;5.87;;;14.10;90.10;;;;;;5051038;28;20480;-75
2022/04/07 07:07:42;;;;;;;9.60;5.87;;;14.20;90.50;;;;;;5051081;28;20485;-78
2022/04/07 07:10:09;;;;;;;14.00;6.40;;;14.30;90.70;;;;;;5051123;28;20823;-73
2022/04/07 07:12:37;;;;;;;8.80;6.50;;;14.30;90.50;;;;;;5050741;28;20531;-73
2022/04/07 07:15:05;;;;;;;8.20;5.60;;;14.30;90.30;;;;;;5051147;28;20842;-75
2022/04/07 07:17:33;;;;;;;9.43;5.80;;;14.30;90.00;;;;;;5051040;28;20473;-73
2022/04/07 07:20:04;;;;;;;8.50;5.60;;;14.40;89.70;;;;;;5050775;28;20500;-72
2022/04/07 07:22:33;;;;;;;8.90;5.97;;;14.30;88.10;;;;;;5050769;28;20607;-74
2022/04/07 07:25:00;;;;;;;11.30;5.70;;;14.20;88.50;;;;;;5050866;28;20458;-74
2022/04/07 07:27:28;;;;;;;6.60;4.83;;;14.30;88.30;;;;;;5050511;28;20465;-77
2022/04/07 07:29:55;;;;;;;8.07;6.50;;;14.10;89.00;;;;;;5051059;28;20810;-74
2022/04/07 07:32:22;;;;;;;8.50;6.00;;;14.10;89.70;;;;;;5050814;28;20485;-73
2022/04/07 07:34:49;;;;;;;10.50;7.43;;;14.20;88.60;;;;;;5050765;28;20461;-75
2022/04/07 07:37:18;;;;;;;15.13;11.57;;;14.40;88.60;;;;;;5050456;28;20474;-74
2022/04/07 07:39:50;;;;;;;11.50;6.00;;;14.60;88.10;;;;;;5050442;28;20554;-75
2022/04/07 07:42:17;;;;;;;13.03;8.17;;;14.80;86.70;;;;;;5050307;28;20485;-75
2022/04/07 07:44:44;;;;;;;11.30;7.30;;;15.00;86.40;;;;;;5050508;28;20454;-74
2022/04/07 07:47:12;;;;;;;9.97;6.83;;;15.10;86.40;;;;;;5050368;28;20481;-74
2022/04/07 07:49:39;;;;;;;12.73;8.07;;;15.20;86.40;;;;;;5050048;28;20489;-74
2022/04/07 07:52:06;;;;;;;9.03;6.63;;;15.10;91.20;;;;;;5050362;28;20793;-75
2022/04/07 07:54:33;;;;;;;8.33;5.40;;;15.10;91.80;;;;;;5050326;28;20453;-72
2022/04/07 07:57:02;;;;;;;10.80;5.80;;;15.10;91.40;;;;;;5049996;28;20473;-68
2022/04/07 07:59:29;;;;;;;12.37;6.00;;;15.00;90.80;;;;;;5050103;28;20457;-67
2022/04/07 08:01:56;;;;;;;16.03;6.60;;;15.20;90.60;;;;;;5049732;28;20817;-75
2022/04/07 08:04:23;;;;;;;8.00;5.70;;;15.00;90.90;;;;;;5049733;28;20507;-75
2022/04/07 08:06:51;;;;;;;10.73;6.80;;;15.00;91.40;;;;;;5049775;28;20481;-79
2022/04/07 08:09:18;;;;;;;9.33;5.50;;;15.00;90.90;;;;;;5051022;28;20457;-77
2022/04/07 08:11:45;;;;;;;9.10;6.07;;;15.20;91.50;;;;;;5050356;28;20516;-78
2022/04/07 08:14:14;;;;;;;7.93;5.10;;;15.40;90.60;;;;;;5051521;28;20503;-79
2022/04/07 08:16:41;;;;;;;8.87;5.83;;;15.60;89.20;;;;;;5049745;28;20482;-76
2022/04/07 08:19:10;;;;;;;14.07;8.70;;;15.70;86.30;;;;;;5049731;28;20507;-78
2022/04/07 08:21:37;;;;;;;8.80;6.37;;;16.00;85.40;;;;;;5049841;28;21174;-77
2022/04/07 08:24:05;;;;;;;19.23;6.37;;;16.30;84.80;;;;;;5049824;28;20537;-78
2022/04/07 08:26:32;;;;;;;8.70;5.97;;;16.20;83.20;;;;;;5049665;28;20482;-77
2022/04/07 08:28:59;;;;;;;13.00;5.70;;;16.50;85.10;;;;;;5049668;28;20454;-75
2022/04/07 08:31:28;;;;;;;6.67;4.47;;;16.60;80.20;;;;;;5049628;28;20486;-77
2022/04/07 08:33:55;;;;;;;10.20;5.10;;;16.80;79.90;;;;;;5049676;28;20524;-67
2022/04/07 08:36:22;;;;;;;8.30;5.20;;;17.10;78.20;;;;;;5049604;28;20478;-69
2022/04/07 08:38:49;;;;;;;7.87;4.67;;;17.50;77.30;;;;;;5049494;28;20931;-68
2022/04/07 08:41:18;;;;;;;13.90;10.00;;;17.70;76.10;;;;;;5049478;28;20481;-68
2022/04/07 08:43:46;;;;;;;8.33;5.80;;;18.00;75.40;;;;;;5049292;28;20466;-68
2022/04/07 08:46:14;;;;;;;9.60;5.13;;;18.10;74.30;;;;;;5049131;28;20478;-69
2022/04/07 08:48:43;;;;;;;9.27;5.37;;;18.20;73.70;;;;;;5048729;28;21001;-68
2022/04/07 08:51:12;;;;;;;7.93;4.60;;;18.00;70.90;;;;;;5049177;28;20493;-69
2022/04/07 08:53:40;;;;;;;11.10;8.00;;;17.70;71.20;;;;;;5049359;28;20938;-69
2022/04/07 08:56:10;;;;;;;8.53;7.00;;;17.70;71.80;;;;;;5049124;28;20474;-67
2022/04/07 08:58:37;;;;;;;9.27;5.77;;;17.90;71.60;;;;;;5049070;28;20469;-68
2022/04/07 09:01:05;;;;;;;17.07;11.77;;;17.70;72.70;;;;;;5049256;28;20480;-68
2022/04/07 09:03:32;;;;;;;21.43;14.00;;;17.70;72.00;;;;;;5049259;28;20822;-72
2022/04/07 09:06:01;;;;;;;8.43;5.03;;;17.90;71.60;;;;;;5049260;28;20882;-69
2022/04/07 09:08:32;;;;;;;9.33;5.60;;;18.00;70.90;;;;;;5048961;28;20454;-70
2022/04/07 09:11:00;;;;;;;12.20;5.40;;;18.20;70.40;;;;;;5048997;28;20534;-74
2022/04/07 09:13:31;;;;;;;12.20;5.13;;;18.20;69.80;;;;;;5048990;28;20512;-73
2022/04/07 09:15:59;;;;;;;10.30;5.87;;;18.00;69.80;;;;;;5049273;28;20533;-73
2022/04/07 09:18:27;;;;;;;9.37;5.13;;;17.80;70.60;;;;;;5052269;28;20969;-72
2022/04/07 09:20:54;;;;;;;9.40;5.90;;;17.70;71.10;;;;;;5052960;28;20480;-73
2022/04/07 09:23:22;;;;;;;8.30;5.20;;;17.50;71.30;;;;;;5052501;28;20943;-68
2022/04/07 09:25:50;;;;;;;9.60;4.90;;;17.40;72.30;;;;;;5053003;28;20608;-68
2022/04/07 09:28:30;;;;;;;8.83;5.30;;;17.20;76.00;;;;;;5053057;28;20453;-68
2022/04/07 09:30:58;;;;;;;9.33;5.60;;;16.90;76.70;;;;;;5052739;28;20894;-69
2022/04/07 09:33:27;;;;;;;9.03;5.13;;;16.70;78.30;;;;;;5052695;28;20451;-68
2022/04/07 09:36:05;;;;;;;10.03;5.27;;;16.70;77.40;;;;;;5052615;28;20469;-68
2022/04/07 09:38:34;;;;;;;8.80;6.50;;;16.70;80.00;;;;;;5052519;28;20834;-68
2022/04/07 09:41:06;;;;;;;8.90;5.47;;;16.60;78.20;;;;;;5052697;28;20460;-68
2022/04/07 09:43:43;;;;;;;7.87;5.33;;;16.50;79.10;;;;;;5052836;28;20931;-68
2022/04/07 09:46:11;;;;;;;12.50;7.70;;;16.50;77.30;;;;;;5052160;28;20662;-68
2022/04/07 09:48:38;;;;;;;6.90;5.00;;;16.50;76.00;;;;;;5052245;28;20616;-68
2022/04/07 09:51:07;;;;;;;10.30;5.57;;;16.40;76.00;;;;;;5052510;28;20508;-69
2022/04/07 09:53:40;;;;;;;10.00;5.83;;;16.40;75.90;;;;;;5052356;28;20465;-69
2022/04/07 09:56:07;;;;;;;9.50;5.87;;;16.20;77.20;;;;;;5052394;28;20450;-68
2022/04/07 09:58:35;;;;;;;9.57;5.03;;;16.00;81.60;;;;;;5052280;28;20461;-68
2022/04/07 10:01:04;;;;;;;13.43;5.00;;;15.90;83.30;;;;;;5052081;28;20450;-69
2022/04/07 10:03:32;;;;;;;17.40;5.40;;;15.40;80.20;;;;;;5050511;28;20457;-68
2022/04/07 10:06:00;;;;;;;12.50;4.80;;;15.00;82.70;;;;;;5052093;28;20465;-68
2022/04/07 10:08:28;;;;;;;11.47;5.10;;;14.70;87.80;;;;;;5052127;28;20454;-70
2022/04/07 10:10:56;;;;;;;14.47;5.93;;;14.20;91.90;;;;;;5051901;28;21218;-68
2022/04/07 10:13:23;;;;;;;14.33;5.27;;;13.60;99.90;;;;;;5051929;28;20576;-68
2022/04/07 10:15:52;;;;;;;15.03;6.10;;;13.30;99.90;;;;;;5052059;28;20537;-69
2022/04/07 10:18:27;;;;;;;15.07;6.23;;;12.80;99.90;;;;;;5052053;28;20537;-67
2022/04/07 10:20:58;;;;;;;15.17;5.47;;;12.30;99.90;;;;;;5051811;28;20934;-68
2022/04/07 10:23:49;;;;;;;13.10;6.73;;;12.10;99.90;;;;;;5051904;28;20450;-68
2022/04/07 10:26:19;;;;;;;16.13;7.73;;;12.00;99.90;;;;;;5051791;28;20606;-69
2022/04/07 10:28:55;;;;;;;13.80;8.10;;;12.10;99.90;;;;;;5051429;28;20461;-68
2022/04/07 10:31:22;;;;;;;16.20;9.80;;;12.20;99.90;;;;;;5051724;28;21116;-66
2022/04/07 10:33:50;;;;;;;18.70;9.63;;;12.20;99.90;;;;;;5051640;28;20512;-68
2022/04/07 10:36:18;;;;;;;19.53;11.27;;;12.30;99.90;;;;;;5051294;28;20985;-67
2022/04/07 10:38:47;;;;;;;19.67;11.03;;;12.40;99.90;;;;;;5051457;28;20457;-67
2022/04/07 10:41:48;;;;;;;14.77;10.80;;;12.50;99.90;;;;;;5051408;28;20453;-67
2022/04/07 10:44:16;;;;;;;14.10;11.30;;;12.70;99.90;;;;;;5050946;28;20492;-76
2022/04/07 10:46:43;;;;;;;20.33;13.63;;;12.80;99.90;;;;;;5051240;28;20481;-76
2022/04/07 10:49:12;;;;;;;14.80;10.70;;;13.00;99.90;;;;;;5050999;28;20491;-78
2022/04/07 10:51:43;;;;;;;14.17;10.00;;;13.20;99.90;;;;;;5051335;28;20485;-72
2022/04/07 10:54:11;;;;;;;16.63;11.03;;;13.20;99.90;;;;;;5051194;28;20484;-76
2022/04/07 10:56:39;;;;;;;13.80;8.90;;;13.40;99.90;;;;;;5050994;28;20482;-75
2022/04/07 10:59:19;;;;;;;18.13;10.50;;;13.40;99.90;;;;;;5050921;28;20549;-77
2022/04/07 11:02:02;;;;;;;11.03;8.30;;;13.50;99.90;;;;;;5051000;28;20493;-75
2022/04/07 11:04:51;;;;;;;9.60;7.90;;;13.70;99.90;;;;;;5051697;28;20485;-79
2022/04/07 11:07:20;;;;;;;13.00;9.37;;;13.70;99.90;;;;;;5051720;28;20478;-79
2022/04/07 11:10:03;;;;;;;11.43;8.30;;;13.80;99.90;;;;;;5052846;28;20856;-74
2022/04/07 11:12:32;;;;;;;27.40;14.27;;;13.80;99.90;;;;;;5049510;28;20489;-72
2022/04/07 11:15:31;;;;;;;17.27;12.33;;;14.00;99.90;;;;;;5051861;28;21022;-69
2022/04/07 11:18:04;;;;;;;13.00;8.97;;;14.30;99.90;;;;;;5050747;28;21053;-68
2022/04/07 11:20:31;;;;;;;11.50;8.30;;;14.30;99.90;;;;;;5050746;28;20847;-69
2022/04/07 11:23:01;;;;;;;12.13;8.13;;;14.10;99.90;;;;;;5050854;28;20796;-69
2022/04/07 11:25:31;;;;;;;11.83;7.20;;;14.10;99.90;;;;;;5050778;28;20512;-68
2022/04/07 11:28:13;;;;;;;11.47;7.53;;;14.20;99.90;;;;;;5050730;28;20580;-68
2022/04/07 11:30:44;;;;;;;14.47;7.23;;;14.30;99.90;;;;;;5050475;28;20457;-69
2022/04/07 11:33:39;;;;;;;11.43;7.40;;;14.60;99.90;;;;;;5050416;28;20494;-69
2022/04/07 11:36:33;;;;;;;10.97;6.53;;;14.90;99.90;;;;;;5050407;28;20457;-69
2022/04/07 11:39:01;;;;;;;11.10;7.13;;;15.10;99.90;;;;;;5050087;28;20469;-69
2022/04/07 11:41:41;;;;;;;15.30;7.47;;;15.20;99.90;;;;;;5049751;28;20454;-68
2022/04/07 11:44:12;;;;;;;15.20;7.27;;;15.30;99.90;;;;;;5050498;28;20488;-69
2022/04/07 11:46:41;;;;;;;15.40;8.30;;;15.40;99.90;;;;;;5050232;28;20838;-67
2022/04/07 11:49:09;;;;;;;15.97;12.70;;;15.40;99.90;;;;;;5049808;28;20493;-70
2022/04/07 11:51:39;;;;;;;14.03;8.63;;;15.60;99.90;;;;;;5050133;28;20458;-68
2022/04/07 11:54:07;;;;;;;12.13;7.37;;;15.60;99.90;;;;;;5049952;28;20993;-68
2022/04/07 11:56:38;;;;;;;10.60;6.77;;;15.80;99.90;;;;;;5050086;28;20462;-67
2022/04/07 11:59:07;;;;;;;15.10;6.90;;;15.90;99.90;;;;;;5050403;28;20449;-72
2022/04/07 12:01:37;;;;;;;12.10;6.70;;;15.90;99.90;;;;;;5049841;28;20992;-72
2022/04/07 12:04:06;;;;;;;11.97;6.97;;;15.90;99.90;;;;;;5050150;28;20454;-72
2022/04/07 12:06:35;;;;;;;10.37;7.30;;;16.00;99.90;;;;;;5049669;28;20482;-72
2022/04/07 12:09:03;;;;;;;13.63;7.10;;;15.90;99.90;;;;;;5049659;28;20465;-72
2022/04/07 12:11:32;;;;;;;53.73;32.97;;;16.00;99.90;;;;;;5049784;28;20462;-72
2022/04/07 12:14:00;;;;;;;15.30;9.03;;;16.10;99.90;;;;;;5049884;28;20520;-72
2022/04/07 12:16:27;;;;;;;9.33;7.30;;;16.10;99.90;;;;;;5049799;28;20535;-72
2022/04/07 12:18:56;;;;;;;9.87;7.27;;;16.10;99.90;;;;;;5049821;28;20463;-70
2022/04/07 12:21:25;;;;;;;13.47;7.37;;;16.20;99.90;;;;;;5049663;28;20450;-72
2022/04/07 12:24:08;;;;;;;13.27;7.47;;;16.20;99.90;;;;;;5049376;28;20454;-73
2022/04/07 12:26:42;;;;;;;10.90;7.90;;;16.20;99.90;;;;;;5049175;28;20539;-72
2022/04/07 12:29:13;;;;;;;15.07;7.87;;;16.20;99.90;;;;;;5049446;28;20962;-72
2022/04/07 12:31:40;;;;;;;11.67;7.50;;;16.10;99.90;;;;;;5049731;28;20450;-74
2022/04/07 12:34:09;;;;;;;15.73;9.40;;;16.20;99.90;;;;;;5049370;28;20489;-74
2022/04/07 12:36:39;;;;;;;17.07;9.20;;;16.40;99.90;;;;;;5049539;28;20505;-76
2022/04/07 12:39:08;;;;;;;16.50;8.50;;;16.60;99.90;;;;;;5049221;28;20458;-75
2022/04/07 12:41:43;;;;;;;15.70;8.60;;;17.00;99.90;;;;;;5049280;28;20454;-74
2022/04/07 12:44:12;;;;;;;13.03;7.83;;;17.20;99.90;;;;;;5049365;28;20441;-75
2022/04/07 12:46:48;;;;;;;14.77;8.40;;;17.50;99.90;;;;;;5049273;28;20922;-73
2022/04/07 12:49:15;;;;;;;11.17;8.17;;;18.00;99.90;;;;;;5048828;28;20489;-75
2022/04/07 12:51:44;;;;;;;10.93;7.93;;;18.40;99.90;;;;;;5051091;28;20453;-69